Date,TemperatureHighF,TemperatureAvgF,TemperatureLowF,DewpointHighF,DewpointAvgF,DewpointLowF,HumidityHigh,HumidityAvg,HumidityLow,PressureMaxIn,PressureMinIn,WindSpeedMaxMPH,WindSpeedAvgMPH,GustSpeedMaxMPH,PrecipitationSumIn
2013-9-1,84.0,74.9,63.3,69.7,63.7,56.5,96,70,40,29.96,29.71,36,4,36,0.07
2013-9-2,78.8,65.9,55.4,59.3,55.8,49.9,95,74,37,30.08,29.96,15,3,15,0.00
2013-9-7,80.0,78.1,76.7,72.5,72.1,71.8,85,82,78,29.89,29.88,4,0,4,0.00
2013-9-8,89.8,79.0,70.2,73.8,71.2,68.2,95,78,57,29.94,29.83,14,3,15,0.00
2013-9-9,100.2,85.5,72.7,71.7,66.6,61.3,93,58,29,29.88,29.80,23,8,23,0.00
2013-9-10,98.3,85.1,72.8,67.8,64.2,61.1,72,52,30,30.00,29.88,30,8,31,0.00
2013-9-11,87.3,77.6,71.3,72.9,68.5,64.3,88,74,58,30.10,29.99,15,2,15,0.00
2013-9-12,82.0,71.4,59.0,67.1,56.0,48.2,92,63,33,30.19,30.07,21,4,21,0.00
2013-9-13,75.5,64.3,51.6,50.6,46.5,43.4,82,55,36,30.25,30.14,11,2,11,0.00
2013-9-14,80.5,63.8,48.3,51.2,46.7,41.6,83,57,33,30.19,29.97,20,5,20,0.00
2013-9-15,69.8,63.3,54.6,63.6,56.7,50.3,93,80,56,30.27,29.91,20,6,20,0.81
2013-9-16,62.6,57.0,52.2,55.5,52.8,49.5,93,86,74,30.42,30.27,13,2,13,0.01
2013-9-17,64.9,58.1,52.6,63.1,55.8,50.4,94,92,85,30.32,30.05,21,3,21,0.15
2013-9-18,90.0,78.4,64.9,73.1,69.2,63.1,94,75,56,30.06,29.79,23,10,24,0.00
2013-9-19,86.0,74.7,65.2,73.1,68.1,62.0,95,81,61,29.89,29.69,27,8,29,1.31
2013-9-20,69.6,60.7,51.8,64.6,54.1,48.2,95,80,60,30.02,29.88,21,4,21,0.00
2013-9-21,70.9,56.5,44.3,55.0,47.7,41.3,92,74,48,30.08,29.95,15,2,15,0.01
2013-9-22,77.7,62.1,48.0,58.8,52.1,45.2,93,72,48,30.05,29.93,17,3,17,0.00
2013-9-23,77.1,63.5,50.0,58.3,52.4,46.7,90,69,45,30.02,29.89,21,4,21,0.00
2013-9-24,78.2,63.7,53.4,61.8,54.7,48.8,85,73,52,29.95,29.86,17,3,17,0.00
2013-9-25,79.8,65.0,51.4,63.3,56.5,48.9,93,76,54,29.98,29.87,16,2,16,0.00
2013-9-26,84.5,70.4,56.6,67.5,60.7,52.8,88,73,51,29.99,29.90,23,5,23,0.00
2013-9-27,85.3,73.7,63.5,68.2,63.0,59.4,88,71,50,30.02,29.91,20,6,22,0.00
2013-9-28,69.3,62.5,49.9,65.8,58.4,47.9,94,87,77,30.09,29.83,25,5,26,0.15
2013-9-29,74.3,58.8,44.2,56.4,49.3,42.6,96,74,43,30.14,29.99,17,3,17,0.01
2013-9-30,77.8,64.2,51.8,59.6,53.9,48.1,90,71,45,29.99,29.80,22,9,22,0.00